createdAt,value
2017-12-02T00:00:16.383Z,16.63
2017-12-02T00:02:45.275Z,16.77
2017-12-02T00:05:14.245Z,12.60
2017-12-02T00:07:43.163Z,16.27
2017-12-02T00:10:11.876Z,17.40
2017-12-02T00:12:40.881Z,14.10
2017-12-02T00:15:10.429Z,12.10
2017-12-02T00:17:38.996Z,11.47
2017-12-02T00:20:08.126Z,9.70
2017-12-02T00:22:37.384Z,13.27
2017-12-02T00:25:07.355Z,16.03
2017-12-02T00:27:36.841Z,13.10
2017-12-02T00:30:06.068Z,15.63
2017-12-02T00:32:35.239Z,17.27
2017-12-02T00:35:03.982Z,13.00
2017-12-02T00:37:33.043Z,16.63
2017-12-02T00:40:01.840Z,17.00
2017-12-02T00:42:30.714Z,13.80
2017-12-02T00:44:59.702Z,12.53
2017-12-02T00:47:28.306Z,15.33
2017-12-02T00:49:57.312Z,15.93
2017-12-02T00:52:26.166Z,13.60
2017-12-02T00:54:55.510Z,14.27
2017-12-02T00:57:24.334Z,10.00
2017-12-02T00:59:53.556Z,13.00
2017-12-02T01:02:22.617Z,11.43
2017-12-02T01:04:51.757Z,12.73
2017-12-02T01:07:20.581Z,16.60
2017-12-02T01:09:49.478Z,13.33
2017-12-02T01:12:18.738Z,15.80
2017-12-02T01:14:48.425Z,16.87
2017-12-02T01:17:16.699Z,15.83
2017-12-02T01:19:44.974Z,12.50
2017-12-02T01:22:13.231Z,11.30
2017-12-02T01:24:42.717Z,14.47
2017-12-02T01:27:11.492Z,17.30
2017-12-02T01:29:40.132Z,14.10
2017-12-02T01:32:08.385Z,15.03
2017-12-02T01:34:36.648Z,10.50
2017-12-02T01:37:04.903Z,16.33
2017-12-02T01:39:33.556Z,10.73
2017-12-02T01:42:01.801Z,13.73
2017-12-02T01:44:30.048Z,15.63
2017-12-02T01:46:58.844Z,16.67
2017-12-02T01:49:27.192Z,16.23
2017-12-02T01:51:55.504Z,16.83
2017-12-02T01:54:23.740Z,15.37
2017-12-02T01:56:52.036Z,15.50
2017-12-02T01:59:20.673Z,17.17
2017-12-02T02:01:48.926Z,17.20
2017-12-02T02:04:17.193Z,16.93
2017-12-02T02:06:45.471Z,17.50
2017-12-02T02:09:13.723Z,17.60
2017-12-02T02:11:42.416Z,16.60
2017-12-02T02:14:10.666Z,17.03
2017-12-02T02:16:39.148Z,15.90
2017-12-02T02:19:07.464Z,18.07
2017-12-02T02:21:35.702Z,15.97
2017-12-02T02:24:03.944Z,13.13
2017-12-02T02:26:32.188Z,13.33
2017-12-02T02:29:00.438Z,16.00
2017-12-02T02:31:28.713Z,16.90
2017-12-02T02:33:57.363Z,13.80
2017-12-02T02:36:25.593Z,16.17
2017-12-02T02:38:53.835Z,13.30
2017-12-02T02:41:22.080Z,15.43
2017-12-02T02:43:50.322Z,16.77
2017-12-02T02:46:18.562Z,17.53
2017-12-02T02:48:46.833Z,14.57
2017-12-02T02:51:15.081Z,17.10
2017-12-02T02:53:43.326Z,14.90
2017-12-02T02:56:11.597Z,15.40
2017-12-02T02:58:40.232Z,16.87
2017-12-02T03:01:08.884Z,17.47
2017-12-02T03:03:37.989Z,16.67
2017-12-02T03:06:06.689Z,17.33
2017-12-02T03:08:35.408Z,18.50
2017-12-02T03:11:04.717Z,16.60
2017-12-02T03:13:35.008Z,18.07
2017-12-02T03:16:05.351Z,18.73
2017-12-02T03:18:34.241Z,17.27
2017-12-02T03:21:03.006Z,18.23
2017-12-02T03:23:32.155Z,16.90
2017-12-02T03:26:01.263Z,16.80
2017-12-02T03:28:31.512Z,17.17
2017-12-02T03:31:00.440Z,16.97
2017-12-02T03:33:29.068Z,18.03
2017-12-02T03:35:58.143Z,17.27
2017-12-02T03:38:29.080Z,17.07
2017-12-02T03:41:02.860Z,14.97
2017-12-02T03:43:33.896Z,16.93
2017-12-02T03:46:04.509Z,16.23
2017-12-02T03:48:42.097Z,17.07
2017-12-02T03:51:15.630Z,17.57
2017-12-02T03:53:45.622Z,13.60
2017-12-02T03:56:14.417Z,13.30
2017-12-02T03:58:42.657Z,15.93
2017-12-02T04:01:10.918Z,15.80
2017-12-02T04:03:39.169Z,16.30
2017-12-02T04:06:07.841Z,10.40
2017-12-02T04:08:36.214Z,15.90
2017-12-02T04:11:04.456Z,15.27
2017-12-02T04:13:32.709Z,16.20
2017-12-02T04:16:20.922Z,15.97
2017-12-02T04:18:50.225Z,17.77
2017-12-02T04:21:18.873Z,18.33
2017-12-02T04:23:47.547Z,17.90
2017-12-02T04:26:19.470Z,16.97
2017-12-02T04:28:51.859Z,14.83
2017-12-02T04:31:21.557Z,12.90
2017-12-02T04:33:49.795Z,16.50
2017-12-02T04:36:18.172Z,15.50
2017-12-02T04:38:46.409Z,14.50
2017-12-02T04:41:15.068Z,12.97
2017-12-02T04:43:53.535Z,13.80
2017-12-02T04:46:23.752Z,15.10
2017-12-02T04:48:52.017Z,14.80
2017-12-02T04:51:20.277Z,13.23
2017-12-02T04:53:48.971Z,14.13
2017-12-02T04:56:17.334Z,13.70
2017-12-02T04:58:45.630Z,13.70
2017-12-02T05:01:13.883Z,14.50
2017-12-02T05:03:42.119Z,14.33
2017-12-02T05:06:10.405Z,13.60
2017-12-02T05:08:38.644Z,13.37
2017-12-02T05:11:06.915Z,13.90
2017-12-02T05:13:35.164Z,11.80
2017-12-02T05:16:03.429Z,12.00
2017-12-02T05:18:31.688Z,12.77
2017-12-02T05:21:00.341Z,13.77
2017-12-02T05:23:28.599Z,15.43
2017-12-02T05:25:56.853Z,12.70
2017-12-02T05:28:25.152Z,15.60
2017-12-02T05:30:53.788Z,14.97
2017-12-02T05:33:22.420Z,14.33
2017-12-02T05:35:50.664Z,14.77
2017-12-02T05:38:18.916Z,12.90
2017-12-02T05:40:47.576Z,11.90
2017-12-02T05:43:15.811Z,13.90
2017-12-02T05:45:44.081Z,15.73
2017-12-02T05:48:12.332Z,13.10
2017-12-02T05:50:40.981Z,12.90
2017-12-02T05:53:09.549Z,15.80
2017-12-02T05:55:37.800Z,15.37
2017-12-02T05:58:06.056Z,16.70
2017-12-02T06:00:34.740Z,12.70
2017-12-02T06:03:03.384Z,12.47
2017-12-02T06:05:31.637Z,10.40
2017-12-02T06:07:59.888Z,10.33
2017-12-02T06:10:29.093Z,15.50
2017-12-02T06:12:57.341Z,15.03
2017-12-02T06:15:25.995Z,16.30
2017-12-02T06:17:54.252Z,15.90
2017-12-02T06:20:22.510Z,13.97
2017-12-02T06:22:51.349Z,15.67
2017-12-02T06:25:19.605Z,17.93
2017-12-02T06:27:48.019Z,16.57
2017-12-02T06:30:16.332Z,16.40
2017-12-02T06:32:44.584Z,15.93
2017-12-02T06:35:12.844Z,14.90
2017-12-02T06:37:41.115Z,16.20
2017-12-02T06:40:09.356Z,11.60
2017-12-02T06:42:37.594Z,13.33
2017-12-02T06:45:05.868Z,14.50
2017-12-02T06:47:34.504Z,13.17
2017-12-02T06:50:02.748Z,11.57
2017-12-02T06:52:31.048Z,12.67
2017-12-02T06:54:59.317Z,15.70
2017-12-02T06:57:27.556Z,15.93
2017-12-02T06:59:55.828Z,16.40
2017-12-02T07:02:24.470Z,13.63
2017-12-02T07:04:52.704Z,10.77
2017-12-02T07:07:20.980Z,15.13
2017-12-02T07:09:49.233Z,13.17
2017-12-02T07:12:17.882Z,16.67
2017-12-02T07:14:46.141Z,18.27
2017-12-02T07:17:14.377Z,17.60
2017-12-02T07:19:43.331Z,16.03
2017-12-02T07:22:11.570Z,13.03
2017-12-02T07:24:39.806Z,14.43
2017-12-02T07:27:08.057Z,11.37
2017-12-02T07:29:36.369Z,14.10
2017-12-02T07:32:04.739Z,14.20
2017-12-02T07:34:33.389Z,16.20
2017-12-02T07:37:01.670Z,16.07
2017-12-02T07:39:30.542Z,12.80
2017-12-02T07:41:59.130Z,11.47
2017-12-02T07:44:27.715Z,17.63
2017-12-02T07:46:56.314Z,14.37
2017-12-02T07:49:25.199Z,12.13
2017-12-02T07:51:53.439Z,12.30
2017-12-02T07:54:21.732Z,16.13
2017-12-02T07:56:49.989Z,12.50
2017-12-02T07:59:18.251Z,16.93
2017-12-02T08:01:46.534Z,10.20
2017-12-02T08:04:14.776Z,16.23
2017-12-02T08:06:43.138Z,11.70
2017-12-02T08:09:11.376Z,17.00
2017-12-02T08:11:39.629Z,16.13
2017-12-02T08:14:07.923Z,12.57
2017-12-02T08:16:36.192Z,13.90
2017-12-02T08:19:04.436Z,11.93
2017-12-02T08:21:33.081Z,10.10
2017-12-02T08:24:01.402Z,12.03
2017-12-02T08:26:30.068Z,11.33
2017-12-02T08:28:58.379Z,11.43
2017-12-02T08:31:26.748Z,13.17
2017-12-02T08:33:54.995Z,13.17
2017-12-02T08:36:23.290Z,9.90
2017-12-02T08:38:52.000Z,12.43
2017-12-02T08:41:20.266Z,14.37
2017-12-02T08:43:48.976Z,16.17
2017-12-02T08:46:17.279Z,16.10
2017-12-02T08:48:45.493Z,13.03
2017-12-02T08:51:14.152Z,15.30
2017-12-02T08:53:42.399Z,15.07
2017-12-02T08:56:10.652Z,16.70
2017-12-02T08:58:38.916Z,16.97
2017-12-02T09:01:07.161Z,17.63
2017-12-02T09:03:35.408Z,17.33
2017-12-02T09:06:03.700Z,16.70
2017-12-02T09:08:31.976Z,16.07
2017-12-02T09:11:00.213Z,14.20
2017-12-02T09:13:28.571Z,16.27
2017-12-02T09:15:57.202Z,16.20
2017-12-02T09:18:25.464Z,16.23
2017-12-02T09:20:53.724Z,16.10
2017-12-02T09:23:21.968Z,13.27
2017-12-02T09:25:50.208Z,10.23
2017-12-02T09:28:18.460Z,15.50
2017-12-02T09:30:46.734Z,13.60
2017-12-02T09:33:14.955Z,15.60
2017-12-02T09:35:43.532Z,15.90
2017-12-02T09:38:12.023Z,15.43
2017-12-02T09:40:40.255Z,14.27
2017-12-02T09:43:08.525Z,15.77
2017-12-02T09:45:36.761Z,16.37
2017-12-02T09:48:05.395Z,14.97
2017-12-02T09:50:33.660Z,14.27
2017-12-02T09:53:01.912Z,13.80
2017-12-02T09:55:31.256Z,15.83
2017-12-02T09:57:59.508Z,12.80
2017-12-02T10:00:27.780Z,11.50
2017-12-02T10:02:56.032Z,12.97
2017-12-02T10:05:24.668Z,12.10
2017-12-02T10:07:52.911Z,13.10
2017-12-02T10:10:21.189Z,10.00
2017-12-02T10:12:49.476Z,10.50
2017-12-02T10:15:17.742Z,12.73
2017-12-02T10:17:45.987Z,15.87
2017-12-02T10:20:14.635Z,13.77
2017-12-02T10:22:43.080Z,10.70
2017-12-02T10:25:11.337Z,11.93
2017-12-02T10:27:40.013Z,15.27
2017-12-02T10:30:08.668Z,12.73
2017-12-02T10:32:36.932Z,12.40
2017-12-02T10:35:05.215Z,12.23
2017-12-02T10:37:33.463Z,14.30
2017-12-02T10:40:01.750Z,13.87
2017-12-02T10:42:29.994Z,9.57
2017-12-02T10:44:58.323Z,12.67
2017-12-02T10:47:26.573Z,7.13
2017-12-02T10:49:54.902Z,8.30
2017-12-02T10:52:23.151Z,12.33
2017-12-02T10:54:51.412Z,8.73
2017-12-02T10:57:19.672Z,9.80
2017-12-02T10:59:47.982Z,10.77
2017-12-02T11:02:16.268Z,7.90
2017-12-02T11:04:44.606Z,13.33
2017-12-02T11:07:12.856Z,8.40
2017-12-02T11:09:41.501Z,11.27
2017-12-02T11:12:09.791Z,7.90
2017-12-02T11:14:38.028Z,8.70
2017-12-02T11:17:06.278Z,7.13
2017-12-02T11:19:34.524Z,13.57
2017-12-02T11:22:04.122Z,8.50
2017-12-02T11:24:32.335Z,10.63
2017-12-02T11:27:00.613Z,11.50
2017-12-02T11:29:28.908Z,12.60
2017-12-02T11:31:57.188Z,11.50
2017-12-02T11:34:25.484Z,7.83
2017-12-02T11:36:53.768Z,8.30
2017-12-02T11:39:22.012Z,7.77
2017-12-02T11:41:50.727Z,8.87
2017-12-02T11:44:18.996Z,7.30
2017-12-02T11:46:47.242Z,9.80
2017-12-02T11:49:15.522Z,13.60
2017-12-02T11:51:43.773Z,13.20
2017-12-02T11:54:12.033Z,13.67
2017-12-02T11:56:40.301Z,6.80
2017-12-02T11:59:08.532Z,7.53
2017-12-02T12:01:36.825Z,8.97
2017-12-02T12:04:05.452Z,7.67
2017-12-02T12:06:33.684Z,10.30
2017-12-02T12:09:01.978Z,10.60
2017-12-02T12:11:30.252Z,8.67
2017-12-02T12:13:58.490Z,6.20
2017-12-02T12:16:26.801Z,8.13
2017-12-02T12:18:55.048Z,9.67
2017-12-02T12:21:23.300Z,9.50
2017-12-02T12:23:51.559Z,7.83
2017-12-02T12:26:19.833Z,10.20
2017-12-02T12:28:48.556Z,9.73
2017-12-02T12:31:17.051Z,6.63
2017-12-02T12:33:45.333Z,8.23
2017-12-02T12:36:13.572Z,9.17
2017-12-02T12:38:41.832Z,8.17
2017-12-02T12:41:10.463Z,8.53
2017-12-02T12:43:38.784Z,7.23
2017-12-02T12:46:07.027Z,7.20
2017-12-02T12:48:35.627Z,8.37
2017-12-02T12:51:03.893Z,11.50
2017-12-02T12:53:32.143Z,5.80
2017-12-02T12:56:00.389Z,4.77
2017-12-02T12:58:28.711Z,7.70
2017-12-02T13:00:56.977Z,10.20
2017-12-02T13:03:25.228Z,7.87
2017-12-02T13:05:53.547Z,5.07
2017-12-02T13:08:21.792Z,7.30
2017-12-02T13:10:50.068Z,7.53
2017-12-02T13:13:18.331Z,5.30
2017-12-02T13:15:46.585Z,7.47
2017-12-02T13:18:15.331Z,5.20
2017-12-02T13:20:43.597Z,7.40
2017-12-02T13:23:11.839Z,8.73
2017-12-02T13:25:41.199Z,7.90
2017-12-02T13:28:10.934Z,6.20
2017-12-02T13:30:39.923Z,8.90
2017-12-02T13:33:08.824Z,10.63
2017-12-02T13:35:37.756Z,7.03
2017-12-02T13:38:06.151Z,7.90
2017-12-02T13:40:34.447Z,6.97
2017-12-02T13:43:02.830Z,9.80
2017-12-02T13:45:31.116Z,8.07
2017-12-02T13:47:59.776Z,9.33
2017-12-02T13:50:28.029Z,7.70
2017-12-02T13:52:56.281Z,5.77
2017-12-02T13:55:25.009Z,9.20
2017-12-02T13:57:54.327Z,8.70
2017-12-02T14:00:22.654Z,9.30
2017-12-02T14:02:51.274Z,9.13
2017-12-02T14:05:19.543Z,8.83
2017-12-02T14:07:47.780Z,10.23
2017-12-02T14:10:16.048Z,9.50
2017-12-02T14:12:44.307Z,9.13
2017-12-02T14:15:12.955Z,6.10
2017-12-02T14:17:41.508Z,6.27
2017-12-02T14:20:10.025Z,6.13
2017-12-02T14:22:38.716Z,8.50
2017-12-02T14:25:07.192Z,9.10
2017-12-02T14:27:35.448Z,8.13
2017-12-02T14:30:03.681Z,4.73
2017-12-02T14:32:32.619Z,10.00
2017-12-02T14:35:00.890Z,9.80
2017-12-02T14:37:29.237Z,7.50
2017-12-02T14:39:57.543Z,9.97
2017-12-02T14:42:25.923Z,10.53
2017-12-02T14:44:54.168Z,6.27
2017-12-02T14:47:22.408Z,7.80
2017-12-02T14:49:51.049Z,9.60
2017-12-02T14:52:19.411Z,9.83
2017-12-02T14:54:47.911Z,9.57
2017-12-02T14:57:16.142Z,9.23
2017-12-02T14:59:44.830Z,11.00
2017-12-02T15:02:13.514Z,9.30
2017-12-02T15:04:41.924Z,10.13
2017-12-02T15:07:10.197Z,10.90
2017-12-02T15:09:38.524Z,9.73
2017-12-02T15:12:06.795Z,10.30
2017-12-02T15:14:35.082Z,6.60
2017-12-02T15:17:03.560Z,10.40
2017-12-02T15:19:31.892Z,6.10
2017-12-02T15:22:00.160Z,6.10
2017-12-02T15:24:28.408Z,6.90
2017-12-02T15:26:57.053Z,7.10
2017-12-02T15:29:25.297Z,7.10
2017-12-02T15:31:53.574Z,6.30
2017-12-02T15:34:21.880Z,5.73
2017-12-02T15:36:50.145Z,10.77
2017-12-02T15:39:19.352Z,8.67
2017-12-02T15:41:47.731Z,8.80
2017-12-02T15:44:15.964Z,8.97
2017-12-02T15:46:44.271Z,6.50
2017-12-02T15:49:12.903Z,7.80
2017-12-02T15:51:41.564Z,8.47
2017-12-02T15:54:09.805Z,10.63
2017-12-02T15:56:38.176Z,7.80
2017-12-02T15:59:06.429Z,11.30
2017-12-02T16:01:34.685Z,7.83
2017-12-02T16:04:03.204Z,11.10
2017-12-02T16:06:31.455Z,7.50
2017-12-02T16:09:00.738Z,10.00
2017-12-02T16:11:29.367Z,7.60
2017-12-02T16:13:57.696Z,11.47
2017-12-02T16:16:26.062Z,6.93
2017-12-02T16:18:54.325Z,12.20
2017-12-02T16:21:22.577Z,10.80
2017-12-02T16:23:50.982Z,14.00
2017-12-02T16:26:20.310Z,10.20
2017-12-02T16:28:48.972Z,9.60
2017-12-02T16:31:17.261Z,7.37
2017-12-02T16:33:45.877Z,7.83
2017-12-02T16:36:14.515Z,12.83
2017-12-02T16:38:42.846Z,12.90
2017-12-02T16:41:11.089Z,11.60
2017-12-02T16:43:39.445Z,9.57
2017-12-02T16:46:07.698Z,12.10
2017-12-02T16:48:35.938Z,8.63
2017-12-02T16:51:04.624Z,12.13
2017-12-02T16:53:32.876Z,13.70
2017-12-02T16:56:01.141Z,13.27
2017-12-02T16:58:29.420Z,9.10
2017-12-02T17:00:57.672Z,13.33
2017-12-02T17:03:25.992Z,10.87
2017-12-02T17:05:54.276Z,12.97
2017-12-02T17:08:22.913Z,11.03
2017-12-02T17:10:51.408Z,8.60
2017-12-02T17:13:19.701Z,11.57
2017-12-02T17:15:47.952Z,10.93
2017-12-02T17:18:16.231Z,12.97
2017-12-02T17:20:44.497Z,13.43
2017-12-02T17:23:12.760Z,13.03
2017-12-02T17:25:41.044Z,14.30
2017-12-02T17:28:09.320Z,11.27
2017-12-02T17:30:37.571Z,10.23
2017-12-02T17:33:05.858Z,14.40
2017-12-02T17:35:34.384Z,10.77
2017-12-02T17:38:02.629Z,13.30
2017-12-02T17:40:30.993Z,13.73
2017-12-02T17:42:59.231Z,11.80
2017-12-02T17:45:27.984Z,15.77
2017-12-02T17:47:56.321Z,9.23
2017-12-02T17:50:24.852Z,9.70
2017-12-02T17:52:53.108Z,15.30
2017-12-02T17:55:21.365Z,9.60
2017-12-02T17:57:49.608Z,10.10
2017-12-02T18:00:18.266Z,12.20
2017-12-02T18:02:46.621Z,16.50
2017-12-02T18:05:14.888Z,15.97
2017-12-02T18:07:43.400Z,9.93
2017-12-02T18:10:11.701Z,15.10
2017-12-02T18:12:40.044Z,10.10
2017-12-02T18:15:08.740Z,13.30
2017-12-02T18:17:37.409Z,11.20
2017-12-02T18:20:05.655Z,12.57
2017-12-02T18:22:33.930Z,15.00
2017-12-02T18:25:02.177Z,10.93
2017-12-02T18:27:30.821Z,10.23
2017-12-02T18:29:59.357Z,11.70
2017-12-02T18:32:27.596Z,16.40
2017-12-02T18:34:55.845Z,13.63
2017-12-02T18:37:24.118Z,12.10
2017-12-02T18:39:52.355Z,10.63
2017-12-02T18:42:20.674Z,12.03
2017-12-02T18:44:48.965Z,9.80
2017-12-02T18:47:17.243Z,15.13
2017-12-02T18:49:45.493Z,11.83
2017-12-02T18:52:13.783Z,15.67
2017-12-02T18:54:42.034Z,15.90
2017-12-02T18:57:10.283Z,17.47
2017-12-02T18:59:39.244Z,15.80
2017-12-02T19:02:07.484Z,10.73
2017-12-02T19:04:35.832Z,9.60
2017-12-02T19:07:04.085Z,12.63
2017-12-02T19:09:32.344Z,9.10
2017-12-02T19:12:00.619Z,12.53
2017-12-02T19:14:28.874Z,9.40
2017-12-02T19:16:57.116Z,10.70
2017-12-02T19:19:25.719Z,12.80
2017-12-02T19:21:54.588Z,10.83
2017-12-02T19:24:22.892Z,12.53
2017-12-02T19:26:51.195Z,14.60
2017-12-02T19:29:19.440Z,16.20
2017-12-02T19:31:47.967Z,11.10
2017-12-02T19:34:16.254Z,11.07
2017-12-02T19:36:44.510Z,15.60
2017-12-02T19:39:12.756Z,10.90
2017-12-02T19:41:41.049Z,10.00
2017-12-02T19:44:09.308Z,13.00
2017-12-02T19:46:37.572Z,12.43
2017-12-02T19:49:05.828Z,9.90
2017-12-02T19:51:34.076Z,16.03
2017-12-02T19:54:02.336Z,11.70
2017-12-02T19:56:31.044Z,15.50
2017-12-02T19:59:00.049Z,15.07
2017-12-02T20:01:28.405Z,12.00
2017-12-02T20:03:56.698Z,16.23
2017-12-02T20:06:25.156Z,16.30
2017-12-02T20:08:54.192Z,15.87
2017-12-02T20:11:23.459Z,16.90
2017-12-02T20:13:51.700Z,17.10
2017-12-02T20:16:19.962Z,15.40
2017-12-02T20:18:48.242Z,14.00
2017-12-02T20:21:16.772Z,15.70
2017-12-02T20:23:45.035Z,12.67
2017-12-02T20:26:13.271Z,14.33
2017-12-02T20:28:41.525Z,13.23
2017-12-02T20:31:09.778Z,15.43
2017-12-02T20:33:38.087Z,17.90
2017-12-02T20:36:06.387Z,14.70
2017-12-02T20:38:34.650Z,12.00
2017-12-02T20:41:02.892Z,18.00
2017-12-02T20:43:31.245Z,16.00
2017-12-02T20:45:59.524Z,18.00
2017-12-02T20:48:27.922Z,12.57
2017-12-02T20:50:56.252Z,17.80
2017-12-02T20:53:24.532Z,17.07
2017-12-02T20:55:52.769Z,13.60
2017-12-02T20:58:21.016Z,18.10
2017-12-02T21:00:49.782Z,16.93
2017-12-02T21:03:18.165Z,17.90
2017-12-02T21:05:46.405Z,13.00
2017-12-02T21:08:14.696Z,10.90
2017-12-02T21:10:43.009Z,14.87
2017-12-02T21:13:11.238Z,16.23
2017-12-02T21:15:39.538Z,15.80
2017-12-02T21:18:07.839Z,11.00
2017-12-02T21:20:36.475Z,12.40
2017-12-02T21:23:05.198Z,12.10
2017-12-02T21:25:33.452Z,12.50
2017-12-02T21:28:01.751Z,17.13
2017-12-02T21:30:30.119Z,11.37
2017-12-02T21:32:58.497Z,12.00
2017-12-02T21:35:27.237Z,14.83
2017-12-02T21:37:55.769Z,13.30
2017-12-02T21:40:24.187Z,12.17
2017-12-02T21:42:52.686Z,10.80
2017-12-02T21:45:21.338Z,10.07
2017-12-02T21:47:49.951Z,15.50
2017-12-02T21:50:19.108Z,11.00
2017-12-02T21:52:47.399Z,13.27
2017-12-02T21:55:15.655Z,15.20
2017-12-02T21:57:44.809Z,15.63
2017-12-02T22:00:13.438Z,11.63
2017-12-02T22:02:42.299Z,9.23
2017-12-02T22:05:11.183Z,14.43
2017-12-02T22:07:39.982Z,11.33
2017-12-02T22:10:09.467Z,11.73
2017-12-02T22:12:37.833Z,9.70
2017-12-02T22:15:06.097Z,11.03
2017-12-02T22:17:34.442Z,13.00
2017-12-02T22:20:02.860Z,11.27
2017-12-02T22:22:31.191Z,13.63
2017-12-02T22:24:59.571Z,14.47
2017-12-02T22:27:27.995Z,15.60
2017-12-02T22:29:56.725Z,15.60
2017-12-02T22:32:25.010Z,15.83
2017-12-02T22:34:53.433Z,16.17
2017-12-02T22:37:21.820Z,14.83
2017-12-02T22:39:50.097Z,15.80
2017-12-02T22:42:18.776Z,14.63
2017-12-02T22:44:47.037Z,13.77
2017-12-02T22:47:16.834Z,12.13
2017-12-02T22:49:46.972Z,12.47
2017-12-02T22:52:16.113Z,15.63
2017-12-02T22:54:44.967Z,16.00
2017-12-02T22:57:13.801Z,15.50
2017-12-02T22:59:42.820Z,12.10
2017-12-02T23:02:12.501Z,12.60
2017-12-02T23:04:42.883Z,11.33
2017-12-02T23:07:12.213Z,11.90
2017-12-02T23:09:41.084Z,15.80
2017-12-02T23:12:10.053Z,13.33
2017-12-02T23:14:38.568Z,12.00
2017-12-02T23:17:07.723Z,11.97
2017-12-02T23:19:36.776Z,12.73
2017-12-02T23:22:05.696Z,16.87
2017-12-02T23:24:34.800Z,14.30
2017-12-02T23:27:03.558Z,10.70
2017-12-02T23:29:32.327Z,14.43
2017-12-02T23:32:01.737Z,13.70
2017-12-02T23:34:30.495Z,15.50
2017-12-02T23:36:59.759Z,16.07
2017-12-02T23:39:29.341Z,17.27
2017-12-02T23:41:58.196Z,12.60
2017-12-02T23:44:26.911Z,11.93
2017-12-02T23:46:55.776Z,11.77
2017-12-02T23:49:24.767Z,12.20
2017-12-02T23:51:53.730Z,13.57
2017-12-02T23:54:22.577Z,16.03
2017-12-02T23:56:51.678Z,13.47
2017-12-02T23:59:20.341Z,11.80
